createdAt,value
2022-09-01T00:02:21.055Z,19.63
2022-09-01T00:04:48.849Z,20.27
2022-09-01T00:07:16.237Z,20.46
2022-09-01T00:09:43.706Z,20.36
2022-09-01T00:12:11.477Z,20.53
2022-09-01T00:14:41.585Z,20.31
2022-09-01T00:17:11.016Z,20.35
2022-09-01T00:19:40.112Z,20.17
2022-09-01T00:22:08.100Z,20.23
2022-09-01T00:24:35.763Z,19.91
2022-09-01T00:27:03.709Z,20.11
2022-09-01T00:29:31.097Z,20.09
2022-09-01T00:31:58.647Z,20.20
2022-09-01T00:34:26.315Z,19.66
2022-09-01T00:36:54.177Z,19.34
2022-09-01T00:39:21.685Z,19.66
2022-09-01T08:42:39.553Z,18.09
2022-09-01T08:45:19.720Z,18.09
2022-09-01T08:48:15.193Z,17.90
2022-09-01T08:50:40.879Z,18.18
2022-09-01T08:53:23.286Z,18.06
2022-09-01T08:55:56.060Z,18.39
2022-09-01T08:58:23.475Z,18.49
2022-09-01T09:00:58.127Z,18.56
2022-09-01T09:03:43.533Z,18.44
2022-09-01T09:06:17.944Z,17.88
2022-09-01T09:08:45.206Z,18.47
2022-09-01T09:11:30.145Z,18.90
2022-09-01T09:14:12.123Z,19.03
2022-09-01T09:16:43.129Z,18.96
2022-09-01T09:19:37.988Z,18.47
2022-09-01T09:22:11.356Z,18.73
2022-09-01T09:25:09.213Z,19.09
2022-09-01T09:27:39.899Z,19.33
2022-09-01T09:30:20.702Z,19.89
2022-09-01T09:35:47.119Z,19.04
2022-09-01T09:38:21.015Z,18.93
2022-09-01T09:41:27.647Z,19.83
2022-09-01T09:44:08.488Z,20.01
2022-09-01T09:46:43.757Z,19.73
2022-09-01T09:49:34.309Z,20.27
2022-09-01T09:52:10.699Z,19.34
2022-09-01T09:54:40.874Z,20.07
2022-09-01T09:57:08.143Z,19.30
2022-09-01T10:00:00.740Z,19.24
2022-09-01T10:02:39.871Z,19.34
2022-09-01T10:05:30.168Z,19.65
2022-09-01T10:07:58.425Z,19.64
2022-09-01T10:10:25.960Z,19.30
2022-09-01T10:12:54.264Z,19.19
2022-09-01T10:15:25.525Z,19.27
2022-09-01T10:18:14.067Z,19.54
2022-09-01T10:20:56.277Z,20.04
2022-09-01T10:23:27.249Z,20.16
2022-09-01T10:26:26.606Z,20.18
2022-09-01T10:29:08.393Z,19.51
2022-09-01T10:31:41.251Z,19.33
2022-09-01T10:34:13.568Z,19.30
2022-09-01T10:36:42.696Z,19.38
2022-09-01T10:39:12.334Z,20.04
2022-09-01T10:41:42.540Z,19.74
2022-09-01T10:44:11.708Z,19.22
2022-09-01T10:46:42.343Z,19.35
2022-09-01T10:49:29.776Z,19.79
2022-09-01T10:52:07.461Z,19.44
2022-09-01T10:54:50.677Z,19.42
2022-09-01T10:57:18.937Z,19.46
2022-09-01T10:59:56.065Z,19.77
2022-09-01T11:02:28.109Z,19.59
2022-09-01T11:05:00.398Z,19.91
2022-09-01T11:08:09.174Z,20.36
2022-09-01T11:10:49.306Z,19.78
2022-09-01T11:13:50.102Z,20.58
2022-09-01T11:16:47.910Z,20.18
2022-09-01T11:19:44.112Z,20.22
2022-09-01T11:22:15.473Z,20.19
2022-09-01T11:24:44.248Z,20.49
2022-09-01T11:27:13.779Z,21.05
2022-09-01T11:29:53.017Z,21.14
2022-09-01T11:32:28.199Z,21.29
2022-09-01T11:34:56.163Z,20.81
2022-09-01T11:37:27.594Z,21.14
2022-09-01T11:39:58.960Z,21.16
2022-09-01T11:42:46.766Z,21.18
2022-09-01T11:45:21.451Z,21.26
2022-09-01T11:47:52.874Z,21.30
2022-09-01T11:50:40.358Z,21.40
2022-09-01T11:53:12.187Z,21.41
2022-09-01T11:55:42.982Z,21.68
2022-09-01T11:58:33.161Z,21.34
2022-09-01T12:01:17.938Z,21.46
2022-09-01T12:03:47.358Z,21.32
2022-09-01T12:06:24.447Z,21.73
2022-09-01T12:09:04.964Z,21.73
2022-09-01T12:11:34.429Z,21.57
2022-09-01T12:14:11.665Z,21.30
2022-09-01T12:16:42.533Z,21.60
2022-09-01T12:19:26.787Z,21.79
2022-09-01T12:22:13.620Z,22.10
2022-09-01T12:24:47.336Z,22.12
2022-09-01T12:27:15.010Z,21.97
2022-09-01T12:29:43.248Z,22.50
2022-09-01T12:32:11.598Z,22.35
2022-09-01T12:34:48.151Z,22.20
2022-09-01T12:37:15.697Z,22.16
2022-09-01T12:39:45.681Z,22.23
2022-09-01T12:42:25.090Z,22.57
2022-09-01T12:45:02.529Z,22.01
2022-09-01T12:47:36.166Z,22.16
2022-09-01T12:50:16.496Z,22.43
2022-09-01T12:52:55.601Z,22.05
2022-09-01T12:58:12.825Z,22.08
2022-09-01T13:00:59.303Z,22.15
2022-09-01T13:03:30.044Z,22.15
2022-09-01T13:06:00.005Z,22.53
2022-09-01T13:08:33.255Z,22.15
2022-09-01T13:11:05.499Z,22.17
2022-09-01T13:13:35.347Z,22.42
2022-09-01T13:16:12.893Z,22.21
2022-09-01T13:21:32.187Z,22.70
2022-09-01T13:23:59.647Z,22.94
2022-09-01T13:26:27.639Z,23.03
2022-09-01T13:28:55.324Z,23.15
2022-09-01T13:31:30.731Z,22.89
2022-09-01T13:34:20.511Z,22.60
2022-09-01T13:36:51.727Z,22.46
2022-09-01T13:39:21.141Z,22.44
2022-09-01T13:41:49.589Z,22.29
2022-09-01T13:44:18.568Z,22.55
2022-09-01T13:49:44.114Z,22.99
2022-09-01T13:52:22.358Z,22.62
2022-09-01T13:54:50.109Z,22.61
2022-09-01T13:57:17.904Z,22.47
2022-09-01T13:59:45.618Z,22.45
2022-09-01T14:02:13.076Z,22.61
2022-09-01T14:04:40.921Z,22.56
2022-09-01T14:07:08.336Z,22.73
2022-09-01T14:09:35.750Z,22.95
2022-09-01T14:12:05.389Z,22.70
2022-09-01T14:17:21.412Z,22.45
2022-09-01T14:19:51.573Z,22.53
2022-09-01T14:22:19.001Z,22.62
2022-09-01T14:24:47.256Z,22.86
2022-09-01T14:27:14.894Z,22.74
2022-09-01T14:32:09.025Z,22.54
2022-09-01T14:34:37.500Z,22.63
2022-09-01T14:37:05.057Z,22.25
2022-09-01T14:39:32.883Z,22.59
2022-09-01T14:42:00.235Z,22.68
2022-09-01T14:44:27.624Z,22.29
2022-09-01T14:46:55.336Z,22.71
2022-09-01T14:49:22.789Z,23.06
2022-09-01T14:54:39.580Z,22.92
2022-09-01T14:59:54.984Z,22.74
2022-09-01T15:02:23.891Z,22.76
2022-09-01T15:04:51.904Z,22.88
2022-09-01T15:07:20.106Z,22.82
2022-09-01T15:09:47.511Z,22.42
2022-09-01T15:12:14.912Z,23.09
2022-09-01T15:14:42.584Z,22.97
2022-09-01T15:17:10.112Z,23.03
2022-09-01T15:19:37.481Z,22.56
2022-09-01T15:22:06.854Z,22.70
2022-09-01T15:24:35.285Z,22.82
2022-09-01T15:27:02.940Z,22.87
2022-09-01T15:29:34.122Z,22.70
2022-09-01T15:32:01.884Z,22.92
2022-09-01T15:34:29.290Z,22.71
2022-09-01T15:36:56.959Z,22.77
2022-09-01T15:39:24.417Z,22.10
2022-09-01T15:41:51.955Z,22.26
2022-09-01T15:44:19.608Z,22.28
2022-09-01T15:46:47.069Z,22.24
2022-09-01T15:49:14.686Z,22.68
2022-09-01T15:51:43.842Z,22.50
2022-09-01T15:54:20.829Z,22.32
2022-09-01T15:56:49.148Z,22.30
2022-09-01T15:59:16.830Z,22.63
2022-09-01T16:01:45.940Z,22.27
2022-09-01T16:04:19.855Z,22.60
2022-09-01T16:06:49.514Z,22.47
2022-09-01T16:09:18.500Z,22.89
2022-09-01T16:11:45.910Z,22.36
2022-09-01T16:14:14.852Z,22.42
2022-09-01T16:17:20.523Z,22.67
2022-09-01T16:19:57.089Z,23.02
2022-09-01T16:22:33.543Z,23.23
2022-09-01T16:25:22.380Z,23.04
2022-09-01T16:27:56.328Z,22.77
2022-09-01T16:30:32.709Z,22.71
2022-09-01T16:33:04.503Z,22.86
2022-09-01T16:35:44.875Z,22.42
2022-09-01T16:38:17.240Z,22.67
2022-09-01T16:40:49.126Z,22.76
2022-09-01T16:43:40.447Z,22.80
2022-09-01T16:46:19.575Z,22.77
2022-09-01T16:49:04.881Z,22.93
2022-09-01T16:52:09.683Z,22.75
2022-09-01T16:55:05.203Z,22.67
2022-09-01T16:57:59.445Z,22.78
2022-09-01T17:00:37.154Z,22.78
2022-09-01T17:03:18.001Z,23.05
2022-09-01T17:06:17.302Z,23.26
2022-09-01T17:08:52.861Z,23.21
2022-09-01T17:11:27.241Z,23.19
2022-09-01T17:13:55.869Z,23.12
2022-09-01T17:16:38.178Z,23.13
2022-09-01T17:19:10.454Z,23.17
2022-09-01T17:21:43.068Z,23.24
2022-09-01T17:24:26.015Z,22.94
2022-09-01T17:26:56.852Z,22.85
2022-09-01T17:29:30.158Z,22.86
2022-09-01T17:32:16.318Z,22.64
2022-09-01T17:35:27.546Z,22.62
2022-09-01T17:38:06.676Z,22.82
2022-09-01T17:40:43.095Z,22.93
2022-09-01T17:43:29.738Z,21.96
2022-09-01T17:46:04.456Z,22.01
2022-09-01T17:48:40.910Z,21.88
2022-09-01T17:51:34.040Z,22.12
2022-09-01T17:54:19.594Z,22.03
2022-09-01T17:57:09.365Z,22.01
2022-09-01T18:00:01.589Z,21.81
2022-09-01T18:03:02.782Z,21.66
2022-09-01T18:05:39.809Z,21.58
2022-09-01T18:08:13.660Z,21.37
2022-09-01T18:10:46.798Z,21.26
2022-09-01T18:13:42.456Z,21.33
2022-09-01T18:18:51.171Z,21.28
2022-09-01T18:21:30.754Z,21.39
2022-09-01T18:24:11.982Z,21.15
2022-09-01T18:26:41.601Z,20.95
2022-09-01T18:29:10.290Z,20.96
2022-09-01T18:31:50.336Z,21.18
2022-09-01T18:34:48.766Z,21.02
2022-09-01T18:37:25.835Z,21.00
2022-09-01T18:40:02.424Z,20.71
2022-09-01T18:42:35.884Z,20.92
2022-09-01T18:45:05.732Z,20.75
2022-09-01T18:47:35.745Z,20.63
2022-09-01T18:50:08.166Z,20.60
2022-09-01T18:53:03.460Z,20.57
2022-09-01T18:55:33.897Z,20.45
2022-09-01T18:58:09.029Z,20.61
2022-09-01T19:00:52.153Z,20.47
2022-09-01T19:03:29.513Z,20.49
2022-09-01T19:06:18.849Z,20.23
2022-09-01T19:09:09.170Z,20.61
2022-09-01T19:12:11.565Z,20.11
2022-09-01T19:15:05.482Z,20.18
2022-09-01T19:17:40.350Z,20.29
2022-09-01T19:20:12.489Z,20.20
2022-09-01T19:23:01.214Z,20.17
2022-09-01T19:25:37.034Z,20.18
2022-09-01T19:28:17.074Z,19.95
2022-09-01T19:30:48.296Z,20.00
2022-09-01T19:33:20.663Z,20.01
2022-09-01T19:35:49.624Z,20.03
2022-09-01T19:38:21.828Z,20.24
2022-09-01T19:40:51.948Z,19.78
2022-09-01T19:43:21.446Z,19.82
2022-09-01T19:46:10.171Z,19.78
2022-09-01T19:49:02.006Z,19.66
2022-09-01T19:52:09.838Z,19.81
2022-09-01T19:54:57.797Z,19.88
2022-09-01T19:57:34.995Z,19.53
2022-09-01T20:00:11.929Z,19.62
2022-09-01T20:03:01.177Z,19.70
2022-09-01T20:05:50.303Z,19.86
2022-09-01T20:08:31.277Z,19.44
2022-09-01T20:11:35.838Z,19.65
2022-09-01T20:14:33.003Z,19.65
2022-09-01T20:17:04.534Z,19.34
2022-09-01T20:19:59.600Z,19.46
2022-09-01T20:22:44.489Z,18.88
2022-09-01T20:25:25.860Z,19.30
2022-09-01T20:28:05.588Z,19.25
2022-09-01T20:30:41.060Z,18.64
2022-09-01T20:33:23.165Z,18.96
2022-09-01T20:36:09.085Z,18.89
2022-09-01T20:39:02.138Z,19.09
2022-09-01T20:41:50.209Z,18.76
2022-09-01T20:45:05.823Z,18.70
2022-09-01T20:47:33.522Z,18.34
2022-09-01T20:50:02.380Z,18.43
2022-09-01T20:53:01.337Z,18.35
2022-09-01T20:55:28.913Z,18.29
2022-09-01T20:58:00.261Z,18.47
2022-09-01T21:00:29.061Z,18.57
2022-09-01T21:03:21.801Z,18.75
2022-09-01T21:06:07.583Z,18.48
2022-09-01T21:08:49.110Z,18.34
2022-09-01T21:11:16.402Z,18.32
2022-09-01T21:14:05.721Z,18.28
2022-09-01T21:17:09.873Z,17.89
2022-09-01T21:19:57.903Z,17.80
2022-09-01T21:22:25.324Z,18.23
2022-09-01T21:24:53.065Z,18.15
2022-09-01T21:27:23.686Z,17.85
2022-09-01T21:29:59.621Z,18.28
2022-09-01T21:32:29.242Z,18.27
2022-09-01T21:34:56.912Z,17.99
2022-09-01T21:37:25.463Z,18.10
2022-09-01T21:39:54.326Z,18.14
2022-09-01T21:42:28.638Z,17.74
2022-09-01T21:44:56.494Z,17.95
2022-09-01T21:47:24.511Z,18.11
2022-09-01T21:49:51.898Z,17.76
2022-09-01T21:52:19.535Z,17.53
2022-09-01T21:54:47.399Z,17.81
2022-09-01T21:57:14.916Z,17.60
2022-09-01T21:59:42.569Z,17.74
2022-09-01T22:02:10.161Z,17.65
2022-09-01T22:04:38.736Z,17.76
2022-09-01T22:07:09.102Z,17.88
2022-09-01T22:09:36.447Z,17.92
2022-09-01T22:12:04.278Z,17.57
2022-09-01T22:14:31.669Z,17.36
2022-09-01T22:17:04.013Z,17.63
2022-09-01T22:19:35.929Z,17.71
2022-09-01T22:22:03.873Z,17.26
2022-09-01T22:24:31.536Z,16.64
2022-09-01T22:26:59.306Z,16.98
2022-09-01T22:29:26.762Z,16.84
2022-09-01T22:31:54.261Z,17.11
2022-09-01T22:34:21.906Z,17.40
2022-09-01T22:36:49.839Z,17.44
2022-09-01T22:39:18.774Z,17.56
2022-09-01T22:41:47.646Z,17.45
2022-09-01T22:44:15.005Z,17.27
2022-09-01T22:46:42.418Z,17.52
2022-09-01T22:49:10.176Z,17.57
2022-09-01T22:51:40.040Z,17.68
2022-09-01T22:54:08.849Z,17.81
2022-09-01T22:56:39.453Z,17.65
2022-09-01T22:59:09.765Z,17.85
2022-09-01T23:01:42.444Z,17.73
2022-09-01T23:04:13.189Z,17.67
2022-09-01T23:06:47.030Z,17.83
2022-09-01T23:09:16.739Z,17.48
2022-09-01T23:11:44.955Z,17.58
2022-09-01T23:14:12.661Z,17.71
2022-09-01T23:16:40.418Z,17.86
2022-09-01T23:19:08.014Z,17.96
2022-09-01T23:21:37.113Z,17.76
2022-09-01T23:24:06.614Z,18.09
2022-09-01T23:26:35.137Z,18.18
2022-09-01T23:29:03.684Z,18.01
2022-09-01T23:31:34.605Z,18.07
2022-09-01T23:34:03.735Z,18.21
2022-09-01T23:36:31.681Z,18.36
2022-09-01T23:38:59.206Z,18.67
2022-09-01T23:41:31.205Z,18.92
2022-09-01T23:44:01.539Z,18.21
2022-09-01T23:46:34.006Z,18.42
2022-09-01T23:49:02.322Z,18.32
2022-09-01T23:51:30.103Z,18.33
2022-09-01T23:53:57.765Z,18.64
2022-09-01T23:56:27.374Z,18.65
2022-09-01T23:58:54.756Z,18.73
